Wednesday, May 24, 2017, 4:20 AM EDT
Back to Local

KMPO, Mt Pocono Pocono Mountains

Location: Pocono Summit, PA, United States Lat: 41.133
Local Time: 4:20 AM EDT ( 8:20 GMT) Lon: -75.383
Time Zone: US/Eastern Elev: 1915 ft

Show me the last for .
Show Decoded

2017-05-24 03:53 METAR KMPO 240753Z AUTO 08004KT 10SM SCT100 11/07 A2974 RMK AO2 SLP070 T01110072
                 =
2017-05-24 02:53 METAR KMPO 240653Z AUTO 07005KT 10SM CLR 11/09 A2976 RMK AO2 SLP074 T01110089 =
2017-05-24 01:53 METAR KMPO 240553Z AUTO 00000KT 10SM CLR 09/08 A2977 RMK AO2 SLP082 T00940083
                 10133 20083 56020 =
2017-05-24 00:53 METAR KMPO 240453Z AUTO 00000KT 10SM CLR 09/09 A2978 RMK AO2 SLP086 T00940089
                 401670083 =
2017-05-23 23:53 METAR KMPO 240353Z AUTO 00000KT 10SM CLR 08/08 A2981 RMK AO2 SLP096 T00830083 =
2017-05-23 22:53 METAR KMPO 240253Z AUTO 00000KT 10SM CLR 09/08 A2983 RMK AO2 SLP105 T00890083
                 58007 =
2017-05-23 21:53 METAR KMPO 240153Z AUTO 00000KT 10SM CLR 09/09 A2985 RMK AO2 SLP109 T00940089 =
2017-05-23 20:53 METAR KMPO 240053Z AUTO 00000KT 10SM CLR 10/09 A2985 RMK AO2 SLP109 T01000089 =
2017-05-23 19:53 METAR KMPO 232353Z AUTO 00000KT 10SM CLR 13/09 A2986 RMK AO2 SLP111 T01330089
                 10161 20133 56008 =
2017-05-23 18:53 METAR KMPO 232253Z AUTO 12004KT 10SM CLR 14/09 A2986 RMK AO2 SLP112 T01440089 =
2017-05-23 17:53 METAR KMPO 232153Z AUTO 13005KT 10SM CLR 16/07 A2986 RMK AO2 SLP110 T01560072 =
2017-05-23 16:53 METAR KMPO 232053Z AUTO 00000KT 10SM CLR 16/08 A2988 RMK AO2 SLP119 T01560083
                 58013 =
2017-05-23 15:53 METAR KMPO 231953Z AUTO VRB03KT 10SM CLR 16/08 A2990 RMK AO2 SLP126 T01560078 =
2017-05-23 14:53 METAR KMPO 231853Z AUTO 10004KT 10SM CLR 16/08 A2991 RMK AO2 SLP128 T01560078 =
2017-05-23 13:53 METAR KMPO 231753Z AUTO 14006KT 10SM CLR 15/08 A2992 RMK AO2 SLP131 T01500078
                 10167 20111 58016 =
2017-05-23 12:53 METAR KMPO 231653Z AUTO 03007KT 10SM CLR 16/06 A2994 RMK AO2 SLP138 T01560061 =
2017-05-23 11:53 METAR KMPO 231553Z AUTO 02007KT 10SM CLR 16/05 A2997 RMK AO2 SLP146 T01610050 =
2017-05-23 10:53 METAR KMPO 231453Z AUTO VRB04KT 10SM CLR 14/06 A2997 RMK AO2 SLP150 T01440056
                 53001 =
2017-05-23 09:53 METAR KMPO 231353Z AUTO 05005KT 10SM CLR 14/06 A2997 RMK AO2 SLP151 T01440061 =
2017-05-23 08:53 METAR KMPO 231253Z AUTO 02007KT 10SM CLR 13/06 A2996 RMK AO2 SLP146 T01330056 =
2017-05-23 07:53 METAR KMPO 231153Z AUTO 00000KT 10SM CLR 11/06 A2997 RMK AO2 SLP151 T01110061
                 10122 20089 53006 =
2017-05-23 06:53 METAR KMPO 231053Z AUTO 33004KT 10SM CLR 10/05 A2997 RMK AO2 SLP150 T01000050 =
2017-05-23 05:53 METAR KMPO 230953Z AUTO 34010G18KT 10SM CLR 09/05 A2995 RMK AO2 SLP144 T00940050
                 =
2017-05-23 04:53 METAR KMPO 230853Z AUTO 33010G19KT 10SM CLR 09/05 A2995 RMK AO2 SLP144 T00940050
                 56006 =

Support USWX by starting your Amazon purchase here.